createdAt,value
2018-07-19T00:02:16.009Z,8.45
2018-07-19T00:04:45.431Z,8.85
2018-07-19T00:07:14.971Z,9.20
2018-07-19T00:09:44.335Z,9.90
2018-07-19T00:12:13.814Z,9.05
2018-07-19T00:14:43.150Z,12.47
2018-07-19T00:17:13.106Z,8.73
2018-07-19T00:19:42.758Z,8.55
2018-07-19T00:22:12.228Z,7.90
2018-07-19T00:24:41.510Z,11.80
2018-07-19T00:27:10.870Z,9.27
2018-07-19T00:29:40.279Z,9.00
2018-07-19T00:32:09.761Z,9.65
2018-07-19T00:34:39.358Z,9.90
2018-07-19T00:37:08.879Z,9.93
2018-07-19T00:39:38.385Z,9.10
2018-07-19T00:42:11.140Z,9.10
2018-07-19T00:44:41.224Z,9.10
2018-07-19T00:47:10.584Z,11.70
2018-07-19T00:49:40.074Z,11.40
2018-07-19T00:52:09.413Z,9.85
2018-07-19T00:54:38.758Z,9.20
2018-07-19T00:59:36.628Z,9.80
2018-07-19T01:09:32.911Z,8.60
2018-07-19T01:12:02.166Z,10.10
2018-07-19T01:16:59.749Z,10.15
2018-07-19T01:21:57.739Z,11.00
2018-07-19T01:39:18.171Z,11.30
2018-07-19T01:42:24.451Z,10.50
2018-07-19T01:44:53.862Z,10.60
2018-07-19T01:52:20.394Z,11.70
2018-07-19T01:54:49.768Z,12.30
2018-07-19T02:12:12.567Z,12.30
2018-07-19T02:46:55.771Z,16.25
2018-07-19T02:49:25.433Z,16.90
2018-07-19T02:51:54.832Z,18.00
2018-07-19T02:54:24.474Z,17.80
2018-07-19T02:56:53.744Z,17.30
2018-07-19T03:01:51.793Z,20.10
2018-07-19T03:19:12.238Z,23.30
2018-07-19T03:21:41.753Z,24.05
2018-07-19T03:24:11.234Z,26.40
2018-07-19T03:26:40.613Z,20.50
2018-07-19T03:34:07.003Z,23.75
2018-07-19T03:36:36.447Z,27.50
2018-07-19T03:46:35.157Z,26.80
2018-07-19T03:49:04.515Z,26.90
2018-07-19T03:51:34.013Z,27.70
2018-07-19T03:54:03.345Z,26.00
2018-07-19T03:56:32.728Z,27.20
2018-07-19T03:59:02.082Z,25.00
2018-07-19T04:01:31.365Z,26.80
2018-07-19T04:06:29.272Z,27.25
2018-07-19T04:08:59.014Z,27.95
2018-07-19T04:11:28.384Z,26.85
2018-07-19T04:13:57.855Z,26.80
2018-07-19T04:16:27.311Z,26.60
2018-07-19T04:18:56.790Z,24.80
2018-07-19T04:21:26.248Z,25.10
2018-07-19T04:23:56.358Z,25.30
2018-07-19T04:26:25.738Z,25.20
2018-07-19T04:28:55.109Z,25.20
2018-07-19T04:31:24.594Z,26.10
2018-07-19T04:33:54.028Z,25.50
2018-07-19T04:36:23.521Z,26.40
2018-07-19T04:38:52.973Z,26.30
2018-07-19T04:41:22.467Z,27.10
2018-07-19T04:46:20.465Z,29.25
2018-07-19T04:48:49.941Z,27.80
2018-07-19T04:51:19.548Z,27.40
2018-07-19T04:58:46.003Z,30.70
2018-07-19T05:01:15.401Z,30.70
2018-07-19T05:03:44.997Z,30.70
2018-07-19T05:06:14.613Z,30.30
2018-07-19T05:08:44.178Z,31.05
2018-07-19T05:11:13.712Z,32.40
2018-07-19T05:13:43.254Z,31.07
2018-07-19T05:16:12.803Z,35.40
2018-07-19T05:18:42.173Z,36.25
2018-07-19T05:21:11.634Z,36.67
2018-07-19T05:23:41.235Z,41.17
2018-07-19T05:26:10.652Z,39.00
2018-07-19T05:28:40.197Z,41.35
2018-07-19T05:31:09.786Z,46.50
2018-07-19T05:33:39.206Z,45.60
2018-07-19T05:36:09.217Z,52.60
2018-07-19T05:38:38.953Z,54.70
2018-07-19T05:41:08.981Z,56.93
2018-07-19T05:43:38.553Z,54.40
2018-07-19T05:46:08.009Z,53.60
2018-07-19T05:48:37.474Z,56.40
2018-07-19T05:51:07.413Z,55.47
2018-07-19T05:53:36.796Z,57.97
2018-07-19T05:56:06.240Z,56.10
2018-07-19T05:58:35.750Z,57.33
2018-07-19T06:01:05.418Z,55.90
2018-07-19T06:03:34.845Z,54.23
2018-07-19T06:06:04.636Z,53.87
2018-07-19T06:08:34.211Z,50.00
2018-07-19T06:11:03.564Z,53.47
2018-07-19T06:13:34.030Z,53.90
2018-07-19T06:16:03.503Z,50.60
2018-07-19T06:18:32.857Z,52.27
2018-07-19T06:21:02.272Z,52.70
2018-07-19T06:23:31.674Z,65.73
2018-07-19T06:26:01.130Z,71.15
2018-07-19T06:28:30.702Z,67.47
2018-07-19T06:31:00.228Z,65.70
2018-07-19T06:33:29.722Z,67.17
2018-07-19T06:35:59.558Z,60.47
2018-07-19T06:38:29.400Z,60.60
2018-07-19T06:40:58.884Z,57.33
2018-07-19T06:43:28.418Z,55.10
2018-07-19T06:45:57.864Z,56.57
2018-07-19T06:48:27.227Z,52.93
2018-07-19T06:50:56.784Z,51.70
2018-07-19T06:53:26.265Z,53.53
2018-07-19T06:55:55.595Z,53.80
2018-07-19T06:58:25.160Z,50.43
2018-07-19T07:00:54.629Z,46.05
2018-07-19T07:03:24.278Z,43.33
2018-07-19T07:05:53.740Z,39.70
2018-07-19T07:08:23.188Z,38.25
2018-07-19T07:10:52.600Z,33.57
2018-07-19T07:13:22.089Z,32.63
2018-07-19T07:15:51.596Z,33.60
2018-07-19T07:18:21.175Z,32.30
2018-07-19T07:20:50.478Z,32.37
2018-07-19T07:23:19.937Z,28.47
2018-07-19T07:25:54.900Z,28.10
2018-07-19T07:28:25.502Z,34.23
2018-07-19T07:30:54.907Z,24.73
2018-07-19T07:33:24.292Z,27.00
2018-07-19T07:35:53.886Z,23.03
2018-07-19T07:38:23.139Z,26.30
2018-07-19T07:40:52.761Z,24.50
2018-07-19T07:43:22.133Z,19.63
2018-07-19T07:45:51.692Z,21.00
2018-07-19T07:48:21.332Z,18.17
2018-07-19T07:50:50.868Z,22.33
2018-07-19T07:53:20.314Z,20.13
2018-07-19T07:55:49.906Z,17.27
2018-07-19T07:58:19.444Z,15.43
2018-07-19T08:00:48.876Z,18.10
2018-07-19T08:03:18.416Z,22.27
2018-07-19T08:05:48.055Z,20.20
2018-07-19T08:08:18.102Z,18.40
2018-07-19T08:10:47.691Z,17.83
2018-07-19T08:13:17.158Z,16.67
2018-07-19T08:15:46.692Z,17.53
2018-07-19T08:18:16.188Z,14.77
2018-07-19T08:20:45.867Z,16.00
2018-07-19T08:23:15.332Z,12.90
2018-07-19T08:25:44.798Z,13.77
2018-07-19T08:28:14.322Z,16.67
2018-07-19T08:30:43.890Z,11.03
2018-07-19T08:33:13.606Z,11.20
2018-07-19T08:35:43.133Z,14.67
2018-07-19T08:38:12.578Z,10.03
2018-07-19T08:40:42.089Z,9.30
2018-07-19T08:43:11.514Z,9.53
2018-07-19T08:45:41.069Z,6.17
2018-07-19T08:48:11.261Z,9.10
2018-07-19T08:50:40.875Z,7.70
2018-07-19T08:53:10.328Z,7.60
2018-07-19T08:55:39.676Z,5.60
2018-07-19T08:58:09.146Z,4.77
2018-07-19T09:00:38.666Z,3.70
2018-07-19T09:03:08.107Z,5.73
2018-07-19T09:05:37.599Z,7.50
2018-07-19T09:08:07.417Z,7.77
2018-07-19T09:10:37.117Z,8.13
2018-07-19T09:13:06.977Z,4.07
2018-07-19T09:15:36.511Z,5.37
2018-07-19T09:18:06.518Z,4.33
2018-07-19T09:20:35.957Z,10.03
2018-07-19T09:23:05.533Z,7.17
2018-07-19T09:25:35.243Z,6.00
2018-07-19T09:28:04.784Z,6.53
2018-07-19T09:30:34.327Z,6.93
2018-07-19T09:33:03.857Z,6.40
2018-07-19T09:35:33.351Z,6.20
2018-07-19T09:38:03.079Z,3.67
2018-07-19T09:40:32.886Z,5.33
2018-07-19T09:43:02.595Z,6.70
2018-07-19T09:45:32.215Z,4.90
2018-07-19T09:48:01.751Z,4.60
2018-07-19T09:50:31.389Z,5.30
2018-07-19T09:53:00.823Z,7.53
2018-07-19T09:55:30.369Z,6.37
2018-07-19T09:57:59.839Z,4.10
2018-07-19T10:00:34.701Z,4.97
2018-07-19T10:03:04.386Z,6.57
2018-07-19T10:05:34.226Z,6.83
2018-07-19T10:08:03.844Z,8.77
2018-07-19T10:10:33.669Z,6.20
2018-07-19T10:13:03.129Z,5.73
2018-07-19T10:15:32.731Z,5.37
2018-07-19T10:27:52.132Z,5.53
2018-07-19T10:30:21.704Z,2.47
2018-07-19T10:32:51.294Z,5.57
2018-07-19T10:35:20.899Z,4.40
2018-07-19T10:37:50.384Z,3.07
2018-07-19T10:40:19.968Z,5.03
2018-07-19T10:42:49.622Z,6.80
2018-07-19T10:45:19.330Z,6.60
2018-07-19T10:47:48.790Z,4.77
2018-07-19T10:50:18.730Z,4.23
2018-07-19T10:52:48.114Z,5.90
2018-07-19T10:55:17.856Z,4.13
2018-07-19T10:57:47.654Z,7.53
2018-07-19T11:00:17.204Z,5.27
2018-07-19T11:02:46.694Z,4.37
2018-07-19T11:05:16.439Z,4.40
2018-07-19T11:07:46.115Z,5.40
2018-07-19T11:10:15.521Z,6.00
2018-07-19T11:12:45.299Z,3.60
2018-07-19T11:15:14.888Z,6.57
2018-07-19T11:17:44.451Z,4.43
2018-07-19T11:20:13.865Z,4.80
2018-07-19T11:22:43.401Z,5.20
2018-07-19T11:25:12.982Z,9.20
2018-07-19T11:27:42.470Z,5.17
2018-07-19T11:30:11.989Z,4.47
2018-07-19T11:32:41.439Z,4.87
2018-07-19T11:35:10.932Z,5.83
2018-07-19T11:37:40.631Z,4.47
2018-07-19T11:40:10.083Z,6.97
2018-07-19T11:42:39.615Z,5.50
2018-07-19T11:45:09.194Z,6.77
2018-07-19T11:47:38.761Z,7.37
2018-07-19T11:50:08.189Z,8.63
2018-07-19T11:52:37.787Z,12.73
2018-07-19T11:55:07.156Z,6.03
2018-07-19T11:57:36.599Z,5.43
2018-07-19T12:00:06.302Z,6.13
2018-07-19T12:02:35.773Z,6.50
2018-07-19T12:05:05.240Z,5.83
2018-07-19T12:07:34.794Z,5.80
2018-07-19T12:10:04.400Z,5.10
2018-07-19T12:12:33.922Z,5.90
2018-07-19T12:15:03.372Z,5.13
2018-07-19T12:17:32.766Z,7.27
2018-07-19T12:20:02.129Z,3.90
2018-07-19T12:22:31.773Z,6.83
2018-07-19T12:25:01.224Z,5.23
2018-07-19T12:27:30.976Z,4.75
2018-07-19T12:30:00.436Z,5.17
2018-07-19T12:32:30.220Z,3.83
2018-07-19T12:34:59.774Z,7.20
2018-07-19T12:37:29.366Z,4.78
2018-07-19T12:39:58.921Z,5.17
2018-07-19T12:42:28.571Z,7.95
2018-07-19T12:45:02.932Z,7.00
2018-07-19T12:47:32.384Z,4.00
2018-07-19T12:50:01.834Z,3.02
2018-07-19T12:52:31.962Z,4.65
2018-07-19T12:55:01.426Z,3.90
2018-07-19T12:57:30.948Z,5.50
2018-07-19T13:00:01.502Z,3.45
2018-07-19T13:02:32.099Z,5.73
2018-07-19T13:05:01.707Z,4.83
2018-07-19T13:07:31.239Z,5.33
2018-07-19T13:10:06.776Z,3.20
2018-07-19T13:12:36.539Z,3.97
2018-07-19T13:15:07.021Z,3.93
2018-07-19T13:17:36.891Z,4.80
2018-07-19T13:20:06.475Z,2.73
2018-07-19T13:22:36.318Z,3.47
2018-07-19T13:25:06.139Z,3.80
2018-07-19T13:27:35.783Z,4.03
2018-07-19T13:30:05.705Z,6.30
2018-07-19T13:32:35.484Z,4.95
2018-07-19T13:35:05.334Z,8.13
2018-07-19T13:37:35.031Z,3.10
2018-07-19T13:40:04.851Z,5.87
2018-07-19T13:42:34.341Z,4.75
2018-07-19T13:45:04.355Z,4.72
2018-07-19T13:47:34.102Z,4.47
2018-07-19T13:50:04.130Z,3.47
2018-07-19T13:52:44.633Z,4.22
2018-07-19T13:55:14.374Z,4.45
2018-07-19T13:57:44.144Z,4.77
2018-07-19T14:00:13.801Z,4.17
2018-07-19T14:02:43.509Z,5.67
2018-07-19T14:05:13.358Z,3.80
2018-07-19T14:07:43.085Z,5.78
2018-07-19T14:10:12.855Z,4.17
2018-07-19T14:12:42.809Z,5.20
2018-07-19T14:15:12.580Z,3.80
2018-07-19T14:17:42.350Z,4.57
2018-07-19T14:20:12.108Z,5.87
2018-07-19T14:22:41.732Z,6.08
2018-07-19T14:25:11.532Z,5.12
2018-07-19T14:27:41.206Z,3.35
2018-07-19T14:30:10.884Z,5.05
2018-07-19T14:32:40.650Z,7.25
2018-07-19T14:35:10.393Z,8.83
2018-07-19T14:37:40.018Z,2.52
2018-07-19T14:40:09.730Z,4.17
2018-07-19T14:42:39.331Z,5.07
2018-07-19T14:45:09.234Z,5.35
2018-07-19T14:47:38.950Z,3.72
2018-07-19T14:50:08.723Z,4.12
2018-07-19T14:52:38.437Z,5.67
2018-07-19T14:55:08.420Z,3.58
2018-07-19T14:57:38.201Z,4.97
2018-07-19T15:00:08.829Z,3.40
2018-07-19T15:02:38.555Z,3.87
2018-07-19T15:05:08.252Z,4.53
2018-07-19T15:07:38.044Z,3.98
2018-07-19T15:10:07.686Z,3.90
2018-07-19T15:12:37.436Z,4.50
2018-07-19T15:15:07.696Z,3.50
2018-07-19T15:17:37.395Z,3.00
2018-07-19T15:20:07.331Z,3.12
2018-07-19T15:22:37.150Z,3.77
2018-07-19T15:25:06.903Z,7.10
2018-07-19T15:27:36.797Z,4.20
2018-07-19T15:30:06.819Z,5.62
2018-07-19T15:32:36.542Z,3.87
2018-07-19T15:35:06.186Z,4.93
2018-07-19T15:37:35.875Z,3.22
2018-07-19T15:40:06.155Z,3.67
2018-07-19T15:42:35.848Z,5.90
2018-07-19T15:45:06.341Z,3.23
2018-07-19T15:47:36.160Z,4.90
2018-07-19T15:50:06.209Z,4.30
2018-07-19T15:52:35.917Z,4.60
2018-07-19T15:55:06.007Z,3.85
2018-07-19T15:57:35.741Z,6.15
2018-07-19T16:00:06.151Z,2.67
2018-07-19T16:02:35.944Z,3.77
2018-07-19T16:05:05.832Z,2.77
2018-07-19T16:07:35.632Z,3.47
2018-07-19T16:10:05.603Z,2.92
2018-07-19T16:12:35.366Z,4.67
2018-07-19T16:15:05.467Z,2.35
2018-07-19T16:17:35.722Z,3.35
2018-07-19T16:20:08.373Z,5.20
2018-07-19T16:22:38.528Z,3.70
2018-07-19T16:25:08.340Z,3.95
2018-07-19T16:27:38.076Z,3.93
2018-07-19T16:30:08.030Z,4.03
2018-07-19T16:32:37.911Z,5.70
2018-07-19T16:37:39.672Z,5.00
2018-07-19T16:40:09.647Z,5.97
2018-07-19T16:42:39.961Z,3.23
2018-07-19T16:45:10.180Z,3.27
2018-07-19T16:47:40.248Z,9.13
2018-07-19T16:50:10.158Z,3.40
2018-07-19T16:52:40.352Z,3.90
2018-07-19T16:55:10.943Z,3.43
2018-07-19T16:57:40.900Z,2.93
2018-07-19T17:00:10.856Z,1.40
2018-07-19T17:02:40.449Z,3.63
2018-07-19T17:05:09.670Z,3.67
2018-07-19T17:07:39.152Z,3.67
2018-07-19T17:10:08.649Z,3.20
2018-07-19T17:12:38.584Z,4.20
2018-07-19T17:15:08.068Z,6.47
2018-07-19T17:17:37.735Z,6.30
2018-07-19T17:20:07.211Z,1.87
2018-07-19T17:22:37.475Z,3.27
2018-07-19T17:25:07.249Z,3.53
2018-07-19T17:27:36.797Z,3.07
2018-07-19T17:30:06.989Z,4.40
2018-07-19T17:32:36.307Z,3.43
2018-07-19T17:35:06.159Z,6.50
2018-07-19T17:37:35.787Z,5.10
2018-07-19T17:40:05.864Z,2.63
2018-07-19T17:42:35.788Z,6.73
2018-07-19T17:45:05.706Z,5.13
2018-07-19T17:47:35.229Z,3.37
2018-07-19T17:50:04.935Z,5.60
2018-07-19T17:52:34.500Z,4.77
2018-07-19T17:55:04.538Z,3.23
2018-07-19T17:57:34.015Z,3.03
2018-07-19T18:00:02.988Z,2.87
2018-07-19T18:02:32.501Z,1.83
2018-07-19T18:05:02.438Z,1.80
2018-07-19T18:07:31.386Z,3.77
2018-07-19T18:10:00.637Z,3.53
2018-07-19T18:12:30.153Z,3.13
2018-07-19T18:14:59.500Z,3.33
2018-07-19T18:17:28.821Z,4.27
2018-07-19T18:19:59.124Z,2.73
2018-07-19T18:22:28.774Z,2.90
2018-07-19T18:24:58.113Z,1.87
2018-07-19T18:27:27.546Z,6.40
2018-07-19T18:29:57.189Z,2.13
2018-07-19T18:32:26.994Z,1.83
2018-07-19T18:34:56.571Z,4.10
2018-07-19T18:37:26.050Z,1.60
2018-07-19T18:39:55.394Z,6.10
2018-07-19T18:42:25.030Z,3.40
2018-07-19T18:44:54.568Z,5.60
2018-07-19T18:47:23.872Z,1.00
2018-07-19T18:49:53.306Z,3.40
2018-07-19T18:52:22.647Z,4.00
2018-07-19T18:54:58.865Z,1.77
2018-07-19T18:57:29.143Z,3.07
2018-07-19T18:59:59.545Z,2.23
2018-07-19T19:02:28.820Z,5.30
2018-07-19T19:04:59.000Z,5.00
2018-07-19T19:07:28.507Z,2.70
2018-07-19T19:09:58.159Z,5.70
2018-07-19T19:12:27.769Z,3.63
2018-07-19T19:14:57.219Z,1.73
2018-07-19T19:17:26.551Z,1.60
2018-07-19T19:19:56.529Z,2.03
2018-07-19T19:22:26.583Z,2.33
2018-07-19T19:24:56.273Z,3.87
2018-07-19T19:27:26.001Z,3.27
2018-07-19T19:29:56.881Z,3.33
2018-07-19T19:32:26.665Z,2.00
2018-07-19T19:34:56.306Z,2.10
2018-07-19T19:37:25.637Z,3.53
2018-07-19T19:39:55.630Z,3.90
2018-07-19T19:42:25.679Z,3.13
2018-07-19T19:44:55.353Z,3.70
2018-07-19T19:47:25.538Z,3.40
2018-07-19T19:49:55.195Z,3.20
2018-07-19T19:52:25.120Z,6.87
2018-07-19T19:54:54.502Z,3.90
2018-07-19T19:57:23.971Z,4.93
2018-07-19T19:59:53.646Z,7.33
2018-07-19T20:02:23.416Z,4.93
2018-07-19T20:04:52.475Z,4.13
2018-07-19T20:07:22.478Z,7.33
2018-07-19T20:09:52.199Z,6.00
2018-07-19T20:12:21.860Z,9.80
2018-07-19T20:14:51.156Z,4.20
2018-07-19T20:17:20.739Z,8.73
2018-07-19T20:19:50.132Z,13.23
2018-07-19T20:22:19.555Z,5.03
2018-07-19T20:24:49.323Z,6.47
2018-07-19T20:27:19.309Z,7.97
2018-07-19T20:29:49.577Z,5.60
2018-07-19T20:32:19.132Z,6.63
2018-07-19T20:34:48.910Z,6.30
2018-07-19T20:37:18.631Z,4.50
2018-07-19T20:39:48.183Z,4.93
2018-07-19T20:42:18.658Z,8.17
2018-07-19T20:44:48.330Z,9.97
2018-07-19T20:47:17.874Z,9.73
2018-07-19T20:49:47.476Z,8.33
2018-07-19T20:52:17.347Z,10.93
2018-07-19T20:54:47.133Z,9.03
2018-07-19T20:57:16.539Z,8.10
2018-07-19T20:59:46.230Z,7.17
2018-07-19T21:02:15.907Z,9.87
2018-07-19T21:04:45.544Z,11.17
2018-07-19T21:07:15.775Z,12.23
2018-07-19T21:09:46.108Z,8.33
2018-07-19T21:12:15.653Z,6.70
2018-07-19T21:14:45.341Z,5.90
2018-07-19T21:17:14.805Z,9.33
2018-07-19T21:19:43.813Z,8.37
2018-07-19T21:22:13.190Z,8.07
2018-07-19T21:24:42.872Z,11.00
2018-07-19T21:27:13.489Z,9.30
2018-07-19T21:29:42.959Z,9.30
2018-07-19T21:32:12.580Z,10.57
2018-07-19T21:34:42.236Z,8.97
2018-07-19T21:37:12.383Z,12.67
2018-07-19T21:39:41.754Z,14.40
2018-07-19T21:42:11.739Z,10.57
2018-07-19T21:44:41.344Z,10.20
2018-07-19T21:47:10.686Z,12.13
2018-07-19T21:49:40.929Z,11.90
2018-07-19T21:52:11.071Z,12.10
2018-07-19T21:54:40.705Z,14.73
2018-07-19T21:57:10.799Z,11.40
2018-07-19T21:59:39.899Z,11.73
2018-07-19T22:02:08.834Z,10.40
2018-07-19T22:04:38.413Z,9.70
2018-07-19T22:07:07.987Z,9.80
2018-07-19T22:09:37.931Z,10.10
2018-07-19T22:12:07.522Z,12.63
2018-07-19T22:14:37.435Z,15.07
2018-07-19T22:17:07.338Z,17.47
2018-07-19T22:19:36.966Z,13.43
2018-07-19T22:22:06.744Z,14.07
2018-07-19T22:24:36.599Z,14.33
2018-07-19T22:27:06.120Z,12.77
2018-07-19T22:29:35.737Z,11.97
2018-07-19T22:32:05.585Z,12.47
2018-07-19T22:34:35.074Z,16.47
2018-07-19T22:37:04.800Z,11.10
2018-07-19T22:39:34.825Z,10.63
2018-07-19T22:42:04.438Z,12.97
2018-07-19T22:44:33.915Z,10.03
2018-07-19T22:47:03.929Z,10.10
2018-07-19T22:49:33.685Z,10.17
2018-07-19T22:52:03.934Z,10.27
2018-07-19T22:54:33.697Z,10.27
2018-07-19T22:57:03.497Z,9.37
2018-07-19T22:59:33.350Z,10.30
2018-07-19T23:02:02.890Z,11.37
2018-07-19T23:04:33.179Z,11.50
2018-07-19T23:07:03.599Z,11.57
2018-07-19T23:09:33.161Z,11.30
2018-07-19T23:12:02.642Z,13.53
2018-07-19T23:14:36.751Z,11.87
2018-07-19T23:17:06.575Z,10.63
2018-07-19T23:19:36.236Z,11.47
2018-07-19T23:22:05.979Z,10.80
2018-07-19T23:24:35.481Z,15.30
2018-07-19T23:27:05.505Z,12.50
2018-07-19T23:29:35.216Z,12.20
2018-07-19T23:32:05.111Z,13.40
2018-07-19T23:34:35.244Z,11.95
2018-07-19T23:37:11.166Z,11.40
2018-07-19T23:39:45.589Z,10.87
2018-07-19T23:42:30.479Z,11.30
2018-07-19T23:45:05.315Z,11.20
2018-07-19T23:47:37.897Z,10.97
2018-07-19T23:50:07.782Z,10.50
2018-07-19T23:52:37.267Z,10.97
2018-07-19T23:55:07.006Z,11.53
2018-07-19T23:57:36.537Z,12.30
